sensor_id;sensor_type;location;lat;lon;timestamp;P1;P2;P0
75960;PMS7003;64644;48.914;2.254;2022-11-20T00:02:18;9.50;7.50;6.00
75960;PMS7003;64644;48.914;2.254;2022-11-20T00:04:44;7.00;7.00;6.00
75960;PMS7003;64644;48.914;2.254;2022-11-20T00:07:09;10.75;9.75;6.50
75960;PMS7003;64644;48.914;2.254;2022-11-20T00:09:35;9.00;9.00;6.25
75960;PMS7003;64644;48.914;2.254;2022-11-20T00:12:00;10.75;9.00;6.00
75960;PMS7003;64644;48.914;2.254;2022-11-20T00:14:25;12.25;8.50;7.25
75960;PMS7003;64644;48.914;2.254;2022-11-20T00:16:51;10.25;7.75;6.50
75960;PMS7003;64644;48.914;2.254;2022-11-20T00:19:16;10.00;10.00;7.25
75960;PMS7003;64644;48.914;2.254;2022-11-20T00:21:42;6.75;6.75;5.25
75960;PMS7003;64644;48.914;2.254;2022-11-20T00:24:08;13.75;10.00;8.00
75960;PMS7003;64644;48.914;2.254;2022-11-20T00:26:35;9.00;6.50;5.75
75960;PMS7003;64644;48.914;2.254;2022-11-20T00:29:01;8.00;7.50;6.00
75960;PMS7003;64644;48.914;2.254;2022-11-20T00:31:27;6.75;6.75;6.00
75960;PMS7003;64644;48.914;2.254;2022-11-20T00:33:53;10.50;10.50;7.25
75960;PMS7003;64644;48.914;2.254;2022-11-20T00:36:23;10.50;9.00;7.25
75960;PMS7003;64644;48.914;2.254;2022-11-20T00:38:52;13.75;13.00;7.00
75960;PMS7003;64644;48.914;2.254;2022-11-20T00:41:18;9.00;8.00;6.00
75960;PMS7003;64644;48.914;2.254;2022-11-20T00:43:44;6.75;6.75;6.00
75960;PMS7003;64644;48.914;2.254;2022-11-20T00:46:13;9.00;9.00;5.75
75960;PMS7003;64644;48.914;2.254;2022-11-20T00:48:43;7.50;7.25;6.00
75960;PMS7003;64644;48.914;2.254;2022-11-20T00:51:10;8.75;6.00;5.00
75960;PMS7003;64644;48.914;2.254;2022-11-20T00:53:37;7.00;7.00;5.00
75960;PMS7003;64644;48.914;2.254;2022-11-20T00:56:03;2.75;2.00;1.00
75960;PMS7003;64644;48.914;2.254;2022-11-20T00:58:35;8.50;7.00;5.75
75960;PMS7003;64644;48.914;2.254;2022-11-20T01:01:03;6.00;6.00;6.00
75960;PMS7003;64644;48.914;2.254;2022-11-20T01:03:34;6.00;6.00;3.25
75960;PMS7003;64644;48.914;2.254;2022-11-20T01:06:02;8.00;8.00;5.00
75960;PMS7003;64644;48.914;2.254;2022-11-20T01:08:31;6.75;6.25;5.00
75960;PMS7003;64644;48.914;2.254;2022-11-20T01:11:04;9.00;8.00;6.00
75960;PMS7003;64644;48.914;2.254;2022-11-20T01:13:34;9.25;6.00;5.00
75960;PMS7003;64644;48.914;2.254;2022-11-20T01:16:05;5.25;5.25;3.50
75960;PMS7003;64644;48.914;2.254;2022-11-20T01:18:33;6.00;4.25;3.25
75960;PMS7003;64644;48.914;2.254;2022-11-20T01:21:00;5.00;5.00;4.00
75960;PMS7003;64644;48.914;2.254;2022-11-20T01:23:37;5.50;5.00;4.25
75960;PMS7003;64644;48.914;2.254;2022-11-20T01:26:05;4.25;4.25;4.00
75960;PMS7003;64644;48.914;2.254;2022-11-20T01:28:33;7.75;6.50;5.75
75960;PMS7003;64644;48.914;2.254;2022-11-20T01:30:59;8.00;8.00;4.75
75960;PMS7003;64644;48.914;2.254;2022-11-20T01:33:25;6.00;6.00;4.00
75960;PMS7003;64644;48.914;2.254;2022-11-20T01:35:50;7.00;5.50;4.50
75960;PMS7003;64644;48.914;2.254;2022-11-20T01:38:16;6.00;4.00;2.75
75960;PMS7003;64644;48.914;2.254;2022-11-20T01:40:42;4.75;4.25;2.25
75960;PMS7003;64644;48.914;2.254;2022-11-20T01:43:17;4.25;3.75;2.00
75960;PMS7003;64644;48.914;2.254;2022-11-20T01:48:18;5.00;4.50;2.00
75960;PMS7003;64644;48.914;2.254;2022-11-20T01:50:46;4.00;4.00;2.00
75960;PMS7003;64644;48.914;2.254;2022-11-20T01:53:13;1.50;1.50;1.50
75960;PMS7003;64644;48.914;2.254;2022-11-20T01:55:45;4.00;4.00;2.00
75960;PMS7003;64644;48.914;2.254;2022-11-20T01:58:14;5.50;4.00;2.00
75960;PMS7003;64644;48.914;2.254;2022-11-20T02:00:41;5.00;4.00;2.00
75960;PMS7003;64644;48.914;2.254;2022-11-20T02:03:09;4.00;4.00;2.00
75960;PMS7003;64644;48.914;2.254;2022-11-20T02:05:40;5.50;4.50;3.00
75960;PMS7003;64644;48.914;2.254;2022-11-20T02:08:26;5.00;5.00;4.00
75960;PMS7003;64644;48.914;2.254;2022-11-20T02:10:51;1.25;1.00;1.00
75960;PMS7003;64644;48.914;2.254;2022-11-20T02:13:17;5.00;5.00;4.00
75960;PMS7003;64644;48.914;2.254;2022-11-20T02:16:01;4.00;4.00;2.00
75960;PMS7003;64644;48.914;2.254;2022-11-20T02:18:27;6.75;4.75;3.00
75960;PMS7003;64644;48.914;2.254;2022-11-20T02:20:55;5.00;2.00;1.00
75960;PMS7003;64644;48.914;2.254;2022-11-20T02:23:53;4.00;4.00;2.00
75960;PMS7003;64644;48.914;2.254;2022-11-20T02:26:55;4.50;3.25;2.25
75960;PMS7003;64644;48.914;2.254;2022-11-20T02:29:40;7.75;4.75;4.00
75960;PMS7003;64644;48.914;2.254;2022-11-20T02:34:49;4.00;4.00;2.00
75960;PMS7003;64644;48.914;2.254;2022-11-20T02:37:14;4.50;4.50;2.50
75960;PMS7003;64644;48.914;2.254;2022-11-20T02:39:41;3.00;3.00;2.00
75960;PMS7003;64644;48.914;2.254;2022-11-20T02:42:07;5.00;5.00;2.00
75960;PMS7003;64644;48.914;2.254;2022-11-20T02:44:32;5.00;3.50;2.50
75960;PMS7003;64644;48.914;2.254;2022-11-20T02:46:58;3.50;3.50;2.50
75960;PMS7003;64644;48.914;2.254;2022-11-20T02:49:24;3.25;3.25;2.00
75960;PMS7003;64644;48.914;2.254;2022-11-20T02:51:50;5.25;5.00;3.50
75960;PMS7003;64644;48.914;2.254;2022-11-20T02:54:16;2.50;2.50;2.00
75960;PMS7003;64644;48.914;2.254;2022-11-20T02:56:41;4.25;2.00;1.00
75960;PMS7003;64644;48.914;2.254;2022-11-20T02:59:07;6.50;4.00;2.00
75960;PMS7003;64644;48.914;2.254;2022-11-20T03:01:32;4.00;4.00;1.00
75960;PMS7003;64644;48.914;2.254;2022-11-20T03:03:57;6.50;5.00;2.00
75960;PMS7003;64644;48.914;2.254;2022-11-20T03:06:23;8.00;3.00;2.50
75960;PMS7003;64644;48.914;2.254;2022-11-20T03:08:48;2.00;2.00;1.25
75960;PMS7003;64644;48.914;2.254;2022-11-20T03:11:14;2.00;2.00;2.00
75960;PMS7003;64644;48.914;2.254;2022-11-20T03:13:39;4.50;2.00;2.00
75960;PMS7003;64644;48.914;2.254;2022-11-20T03:16:07;5.25;5.25;3.50
75960;PMS7003;64644;48.914;2.254;2022-11-20T03:18:35;5.75;5.00;4.00
75960;PMS7003;64644;48.914;2.254;2022-11-20T03:21:00;4.00;3.75;1.75
75960;PMS7003;64644;48.914;2.254;2022-11-20T03:23:26;4.25;4.25;2.00
75960;PMS7003;64644;48.914;2.254;2022-11-20T03:25:54;4.00;4.00;2.00
75960;PMS7003;64644;48.914;2.254;2022-11-20T03:28:19;2.50;2.50;1.25
75960;PMS7003;64644;48.914;2.254;2022-11-20T03:30:45;2.50;2.50;1.00
75960;PMS7003;64644;48.914;2.254;2022-11-20T03:33:10;4.00;4.00;2.00
75960;PMS7003;64644;48.914;2.254;2022-11-20T03:35:35;2.00;2.00;1.00
75960;PMS7003;64644;48.914;2.254;2022-11-20T03:38:01;3.00;1.75;1.00
75960;PMS7003;64644;48.914;2.254;2022-11-20T03:40:26;2.50;2.50;2.00
75960;PMS7003;64644;48.914;2.254;2022-11-20T03:42:51;3.50;2.00;2.00
75960;PMS7003;64644;48.914;2.254;2022-11-20T03:45:17;5.00;2.00;2.00
75960;PMS7003;64644;48.914;2.254;2022-11-20T03:47:43;5.00;4.00;1.75
75960;PMS7003;64644;48.914;2.254;2022-11-20T03:50:10;1.25;1.25;1.00
75960;PMS7003;64644;48.914;2.254;2022-11-20T03:52:38;1.00;1.00;0.75
75960;PMS7003;64644;48.914;2.254;2022-11-20T03:55:03;5.00;4.00;1.00
75960;PMS7003;64644;48.914;2.254;2022-11-20T03:57:29;2.00;2.00;1.50
75960;PMS7003;64644;48.914;2.254;2022-11-20T03:59:55;3.00;3.00;2.00
75960;PMS7003;64644;48.914;2.254;2022-11-20T04:02:20;2.00;2.00;1.25
75960;PMS7003;64644;48.914;2.254;2022-11-20T04:04:46;3.00;3.00;1.00
75960;PMS7003;64644;48.914;2.254;2022-11-20T04:07:14;1.00;1.00;1.00
75960;PMS7003;64644;48.914;2.254;2022-11-20T04:09:39;3.50;2.00;1.00
75960;PMS7003;64644;48.914;2.254;2022-11-20T04:12:05;2.00;2.00;1.00
75960;PMS7003;64644;48.914;2.254;2022-11-20T04:14:30;5.50;3.25;1.50
75960;PMS7003;64644;48.914;2.254;2022-11-20T04:16:56;1.00;1.00;1.00
75960;PMS7003;64644;48.914;2.254;2022-11-20T04:19:21;1.75;1.00;1.00
75960;PMS7003;64644;48.914;2.254;2022-11-20T04:21:47;2.00;1.00;1.00
75960;PMS7003;64644;48.914;2.254;2022-11-20T04:24:12;2.00;2.00;1.75
75960;PMS7003;64644;48.914;2.254;2022-11-20T04:26:38;4.00;2.50;1.00
75960;PMS7003;64644;48.914;2.254;2022-11-20T04:29:04;5.00;2.50;1.00
75960;PMS7003;64644;48.914;2.254;2022-11-20T04:31:30;4.00;3.75;1.25
75960;PMS7003;64644;48.914;2.254;2022-11-20T04:34:03;3.25;3.25;1.75
75960;PMS7003;64644;48.914;2.254;2022-11-20T04:36:30;4.50;4.50;2.00
75960;PMS7003;64644;48.914;2.254;2022-11-20T04:38:58;4.50;2.00;1.00
75960;PMS7003;64644;48.914;2.254;2022-11-20T04:41:29;3.00;3.00;2.00
75960;PMS7003;64644;48.914;2.254;2022-11-20T04:43:58;2.00;1.50;1.00
75960;PMS7003;64644;48.914;2.254;2022-11-20T04:46:27;4.75;4.75;3.50
75960;PMS7003;64644;48.914;2.254;2022-11-20T04:48:53;1.25;1.25;1.00
75960;PMS7003;64644;48.914;2.254;2022-11-20T04:51:19;0.25;0.25;0.00
75960;PMS7003;64644;48.914;2.254;2022-11-20T04:53:45;1.00;1.00;0.00
75960;PMS7003;64644;48.914;2.254;2022-11-20T04:56:11;2.00;2.00;1.00
75960;PMS7003;64644;48.914;2.254;2022-11-20T04:58:37;1.75;0.75;0.75
75960;PMS7003;64644;48.914;2.254;2022-11-20T05:01:07;1.75;1.75;1.00
75960;PMS7003;64644;48.914;2.254;2022-11-20T05:03:36;4.50;2.00;1.00
75960;PMS7003;64644;48.914;2.254;2022-11-20T05:06:02;2.00;1.00;0.00
75960;PMS7003;64644;48.914;2.254;2022-11-20T05:08:29;1.00;0.25;0.00
75960;PMS7003;64644;48.914;2.254;2022-11-20T05:11:02;2.50;2.00;1.00
75960;PMS7003;64644;48.914;2.254;2022-11-20T05:13:30;2.00;2.00;1.00
75960;PMS7003;64644;48.914;2.254;2022-11-20T05:15:55;1.00;1.00;1.00
75960;PMS7003;64644;48.914;2.254;2022-11-20T05:18:25;4.00;0.00;0.00
75960;PMS7003;64644;48.914;2.254;2022-11-20T05:20:54;1.00;1.00;1.00
75960;PMS7003;64644;48.914;2.254;2022-11-20T05:23:20;4.00;1.75;1.00
75960;PMS7003;64644;48.914;2.254;2022-11-20T05:25:45;1.25;1.25;1.00
75960;PMS7003;64644;48.914;2.254;2022-11-20T05:28:11;3.00;1.25;1.00
75960;PMS7003;64644;48.914;2.254;2022-11-20T05:30:36;1.25;1.00;1.00
75960;PMS7003;64644;48.914;2.254;2022-11-20T05:33:02;1.00;1.00;1.00
75960;PMS7003;64644;48.914;2.254;2022-11-20T05:35:27;3.75;2.50;1.25
75960;PMS7003;64644;48.914;2.254;2022-11-20T05:37:52;3.50;1.00;1.00
75960;PMS7003;64644;48.914;2.254;2022-11-20T05:40:18;1.00;1.00;1.00
75960;PMS7003;64644;48.914;2.254;2022-11-20T05:42:43;2.00;2.00;2.00
75960;PMS7003;64644;48.914;2.254;2022-11-20T05:45:09;4.00;1.50;1.00
75960;PMS7003;64644;48.914;2.254;2022-11-20T05:47:34;4.00;2.00;1.00
75960;PMS7003;64644;48.914;2.254;2022-11-20T05:50:00;0.50;0.00;0.00
75960;PMS7003;64644;48.914;2.254;2022-11-20T05:52:29;2.50;2.50;1.50
75960;PMS7003;64644;48.914;2.254;2022-11-20T05:54:55;3.00;0.00;0.00
75960;PMS7003;64644;48.914;2.254;2022-11-20T05:57:21;1.00;1.00;1.00
75960;PMS7003;64644;48.914;2.254;2022-11-20T05:59:46;3.75;2.50;1.00
75960;PMS7003;64644;48.914;2.254;2022-11-20T06:02:12;1.00;1.00;1.00
75960;PMS7003;64644;48.914;2.254;2022-11-20T06:04:37;2.00;2.00;1.00
75960;PMS7003;64644;48.914;2.254;2022-11-20T06:07:04;1.25;1.25;1.00
75960;PMS7003;64644;48.914;2.254;2022-11-20T06:09:30;3.50;1.75;1.00
75960;PMS7003;64644;48.914;2.254;2022-11-20T06:11:56;1.00;1.00;1.00
75960;PMS7003;64644;48.914;2.254;2022-11-20T06:14:21;2.50;2.00;0.50
75960;PMS7003;64644;48.914;2.254;2022-11-20T06:16:46;4.00;1.75;1.00
75960;PMS7003;64644;48.914;2.254;2022-11-20T06:19:12;1.00;1.00;1.00
75960;PMS7003;64644;48.914;2.254;2022-11-20T06:21:37;1.00;1.00;1.00
75960;PMS7003;64644;48.914;2.254;2022-11-20T06:24:03;4.00;1.50;1.00
75960;PMS7003;64644;48.914;2.254;2022-11-20T06:26:28;1.25;1.25;1.00
75960;PMS7003;64644;48.914;2.254;2022-11-20T06:28:55;5.00;4.00;1.00
75960;PMS7003;64644;48.914;2.254;2022-11-20T06:31:22;1.50;0.75;0.00
75960;PMS7003;64644;48.914;2.254;2022-11-20T06:33:49;0.75;0.75;0.75
75960;PMS7003;64644;48.914;2.254;2022-11-20T06:36:15;1.75;1.75;1.00
75960;PMS7003;64644;48.914;2.254;2022-11-20T06:38:42;2.00;2.00;1.00
75960;PMS7003;64644;48.914;2.254;2022-11-20T06:41:12;4.50;3.75;1.00
75960;PMS7003;64644;48.914;2.254;2022-11-20T06:43:40;3.50;1.00;0.75
75960;PMS7003;64644;48.914;2.254;2022-11-20T06:46:05;1.00;1.00;1.00
75960;PMS7003;64644;48.914;2.254;2022-11-20T06:48:32;7.50;4.00;2.00
75960;PMS7003;64644;48.914;2.254;2022-11-20T06:50:58;2.00;2.00;1.00
75960;PMS7003;64644;48.914;2.254;2022-11-20T06:53:24;1.25;1.25;1.00
75960;PMS7003;64644;48.914;2.254;2022-11-20T06:55:49;1.75;1.75;1.00
75960;PMS7003;64644;48.914;2.254;2022-11-20T06:58:16;4.50;2.00;1.00
75960;PMS7003;64644;48.914;2.254;2022-11-20T07:00:42;1.75;1.75;1.00
75960;PMS7003;64644;48.914;2.254;2022-11-20T07:03:08;5.00;2.00;1.00
75960;PMS7003;64644;48.914;2.254;2022-11-20T07:05:35;1.75;1.75;1.00
75960;PMS7003;64644;48.914;2.254;2022-11-20T07:08:01;1.75;1.00;1.00
75960;PMS7003;64644;48.914;2.254;2022-11-20T07:10:28;3.00;2.00;1.00
75960;PMS7003;64644;48.914;2.254;2022-11-20T07:12:53;2.00;1.00;1.00
75960;PMS7003;64644;48.914;2.254;2022-11-20T07:15:20;2.00;2.00;1.00
75960;PMS7003;64644;48.914;2.254;2022-11-20T07:17:46;1.25;1.25;0.75
75960;PMS7003;64644;48.914;2.254;2022-11-20T07:20:12;2.25;1.00;1.00
75960;PMS7003;64644;48.914;2.254;2022-11-20T07:22:38;1.50;1.50;1.00
75960;PMS7003;64644;48.914;2.254;2022-11-20T07:25:04;2.50;2.50;1.00
75960;PMS7003;64644;48.914;2.254;2022-11-20T07:27:30;4.00;2.00;1.00
75960;PMS7003;64644;48.914;2.254;2022-11-20T07:29:55;1.00;1.00;0.50
75960;PMS7003;64644;48.914;2.254;2022-11-20T07:32:21;2.00;1.25;0.75
75960;PMS7003;64644;48.914;2.254;2022-11-20T07:34:47;1.00;1.00;1.00
75960;PMS7003;64644;48.914;2.254;2022-11-20T07:37:12;1.75;1.75;1.00
75960;PMS7003;64644;48.914;2.254;2022-11-20T07:39:38;2.00;2.00;2.00
75960;PMS7003;64644;48.914;2.254;2022-11-20T07:42:04;1.25;1.00;1.00
75960;PMS7003;64644;48.914;2.254;2022-11-20T07:44:30;0.50;0.50;0.25
75960;PMS7003;64644;48.914;2.254;2022-11-20T07:46:55;4.00;2.00;1.00
75960;PMS7003;64644;48.914;2.254;2022-11-20T07:49:21;1.25;1.00;1.00
75960;PMS7003;64644;48.914;2.254;2022-11-20T07:51:46;2.00;2.00;1.25
75960;PMS7003;64644;48.914;2.254;2022-11-20T07:54:11;1.00;1.00;0.50
75960;PMS7003;64644;48.914;2.254;2022-11-20T07:56:37;1.75;1.00;1.00
75960;PMS7003;64644;48.914;2.254;2022-11-20T07:59:03;1.50;1.00;1.00
75960;PMS7003;64644;48.914;2.254;2022-11-20T08:01:28;2.00;1.00;1.00
75960;PMS7003;64644;48.914;2.254;2022-11-20T08:03:53;4.75;3.50;2.00
75960;PMS7003;64644;48.914;2.254;2022-11-20T08:06:19;0.75;0.75;0.75
75960;PMS7003;64644;48.914;2.254;2022-11-20T08:08:45;1.50;1.50;1.00
75960;PMS7003;64644;48.914;2.254;2022-11-20T08:11:10;2.00;1.00;0.00
75960;PMS7003;64644;48.914;2.254;2022-11-20T08:13:54;2.00;1.50;1.00
75960;PMS7003;64644;48.914;2.254;2022-11-20T08:16:41;3.00;2.00;1.50
75960;PMS7003;64644;48.914;2.254;2022-11-20T08:19:14;5.75;2.00;1.00
75960;PMS7003;64644;48.914;2.254;2022-11-20T08:21:40;1.75;1.00;1.00
75960;PMS7003;64644;48.914;2.254;2022-11-20T08:24:06;4.00;4.00;2.00
75960;PMS7003;64644;48.914;2.254;2022-11-20T08:26:35;8.00;4.00;1.75
75960;PMS7003;64644;48.914;2.254;2022-11-20T08:29:01;2.00;2.00;1.00
75960;PMS7003;64644;48.914;2.254;2022-11-20T08:31:27;3.50;1.50;1.00
75960;PMS7003;64644;48.914;2.254;2022-11-20T08:33:53;4.00;2.00;2.00
75960;PMS7003;64644;48.914;2.254;2022-11-20T08:36:19;5.00;5.00;4.00
75960;PMS7003;64644;48.914;2.254;2022-11-20T08:38:49;9.25;4.75;2.00
75960;PMS7003;64644;48.914;2.254;2022-11-20T08:41:15;5.00;4.00;3.00
75960;PMS7003;64644;48.914;2.254;2022-11-20T08:43:58;4.25;1.50;1.00
75960;PMS7003;64644;48.914;2.254;2022-11-20T08:46:27;4.00;2.00;2.00
75960;PMS7003;64644;48.914;2.254;2022-11-20T08:48:57;4.50;4.50;2.00
75960;PMS7003;64644;48.914;2.254;2022-11-20T08:51:23;4.00;4.00;3.50
75960;PMS7003;64644;48.914;2.254;2022-11-20T08:53:48;4.00;2.00;2.00
75960;PMS7003;64644;48.914;2.254;2022-11-20T08:56:14;6.50;3.50;2.00
75960;PMS7003;64644;48.914;2.254;2022-11-20T08:58:39;3.50;3.50;2.00
75960;PMS7003;64644;48.914;2.254;2022-11-20T09:01:05;4.00;2.50;2.00
75960;PMS7003;64644;48.914;2.254;2022-11-20T09:03:31;5.50;5.50;3.00
75960;PMS7003;64644;48.914;2.254;2022-11-20T09:06:00;5.00;5.00;4.00
75960;PMS7003;64644;48.914;2.254;2022-11-20T09:08:27;4.25;4.25;4.00
75960;PMS7003;64644;48.914;2.254;2022-11-20T09:10:53;5.75;4.75;4.00
75960;PMS7003;64644;48.914;2.254;2022-11-20T09:13:20;8.75;6.50;4.75
75960;PMS7003;64644;48.914;2.254;2022-11-20T09:15:47;8.25;4.00;2.00
75960;PMS7003;64644;48.914;2.254;2022-11-20T09:18:17;5.00;5.00;4.00
75960;PMS7003;64644;48.914;2.254;2022-11-20T09:20:42;5.00;5.00;4.00
75960;PMS7003;64644;48.914;2.254;2022-11-20T09:23:07;8.00;8.00;5.00
75960;PMS7003;64644;48.914;2.254;2022-11-20T09:25:33;6.25;6.00;4.00
75960;PMS7003;64644;48.914;2.254;2022-11-20T09:27:58;8.00;8.00;5.50
75960;PMS7003;64644;48.914;2.254;2022-11-20T09:30:24;9.75;6.00;5.00
75960;PMS7003;64644;48.914;2.254;2022-11-20T09:32:51;8.50;8.00;4.75
75960;PMS7003;64644;48.914;2.254;2022-11-20T09:35:17;10.75;7.50;5.00
75960;PMS7003;64644;48.914;2.254;2022-11-20T09:37:43;8.00;7.50;5.00
75960;PMS7003;64644;48.914;2.254;2022-11-20T09:40:22;10.00;8.75;5.00
75960;PMS7003;64644;48.914;2.254;2022-11-20T09:42:54;5.50;5.50;4.75
75960;PMS7003;64644;48.914;2.254;2022-11-20T09:45:38;8.25;7.50;5.00
75960;PMS7003;64644;48.914;2.254;2022-11-20T09:54:17;8.75;8.75;7.00
75960;PMS7003;64644;48.914;2.254;2022-11-20T09:56:45;8.00;5.50;4.25
75960;PMS7003;64644;48.914;2.254;2022-11-20T09:59:30;8.50;8.50;5.25
75960;PMS7003;64644;48.914;2.254;2022-11-20T10:02:00;8.00;5.75;5.00
75960;PMS7003;64644;48.914;2.254;2022-11-20T10:04:31;10.50;8.50;5.00
75960;PMS7003;64644;48.914;2.254;2022-11-20T10:07:07;8.00;7.50;5.00
75960;PMS7003;64644;48.914;2.254;2022-11-20T10:09:57;4.75;4.75;4.00
75960;PMS7003;64644;48.914;2.254;2022-11-20T10:21:09;6.50;6.00;5.00
75960;PMS7003;64644;48.914;2.254;2022-11-20T10:26:39;6.50;5.00;4.00
75960;PMS7003;64644;48.914;2.254;2022-11-20T10:29:19;4.00;4.00;2.00
75960;PMS7003;64644;48.914;2.254;2022-11-20T10:32:01;10.00;8.50;6.00
75960;PMS7003;64644;48.914;2.254;2022-11-20T10:34:41;8.00;6.00;5.00
75960;PMS7003;64644;48.914;2.254;2022-11-20T10:37:25;6.50;6.50;4.25
75960;PMS7003;64644;48.914;2.254;2022-11-20T10:42:46;5.00;5.00;2.00
75960;PMS7003;64644;48.914;2.254;2022-11-20T10:45:28;6.00;5.00;4.25
75960;PMS7003;64644;48.914;2.254;2022-11-20T10:48:09;5.50;5.50;4.25
75960;PMS7003;64644;48.914;2.254;2022-11-20T10:50:38;7.50;5.50;5.00
75960;PMS7003;64644;48.914;2.254;2022-11-20T10:53:19;6.25;5.00;4.50
75960;PMS7003;64644;48.914;2.254;2022-11-20T10:56:00;4.75;4.00;2.00
75960;PMS7003;64644;48.914;2.254;2022-11-20T11:01:16;4.00;4.00;2.00
75960;PMS7003;64644;48.914;2.254;2022-11-20T11:03:43;4.50;3.00;2.00
75960;PMS7003;64644;48.914;2.254;2022-11-20T11:09:04;4.00;2.00;1.50
75960;PMS7003;64644;48.914;2.254;2022-11-20T11:11:37;3.50;3.50;2.00
75960;PMS7003;64644;48.914;2.254;2022-11-20T11:14:13;4.25;4.25;2.00
75960;PMS7003;64644;48.914;2.254;2022-11-20T11:16:50;6.50;5.00;3.00
75960;PMS7003;64644;48.914;2.254;2022-11-20T11:19:17;3.00;3.00;3.00
75960;PMS7003;64644;48.914;2.254;2022-11-20T11:21:46;4.00;4.00;1.75
75960;PMS7003;64644;48.914;2.254;2022-11-20T11:24:19;6.00;6.00;5.00
75960;PMS7003;64644;48.914;2.254;2022-11-20T11:26:51;2.00;2.00;1.00
75960;PMS7003;64644;48.914;2.254;2022-11-20T11:29:17;2.00;2.00;1.75
75960;PMS7003;64644;48.914;2.254;2022-11-20T11:31:43;2.25;2.25;2.00
75960;PMS7003;64644;48.914;2.254;2022-11-20T11:34:15;3.75;3.75;2.00
75960;PMS7003;64644;48.914;2.254;2022-11-20T11:36:47;1.00;1.00;1.00
75960;PMS7003;64644;48.914;2.254;2022-11-20T11:39:22;1.00;1.00;1.00
75960;PMS7003;64644;48.914;2.254;2022-11-20T11:41:52;3.25;2.00;1.00
75960;PMS7003;64644;48.914;2.254;2022-11-20T11:44:23;2.50;2.50;2.00
75960;PMS7003;64644;48.914;2.254;2022-11-20T11:47:17;1.00;1.00;0.00
75960;PMS7003;64644;48.914;2.254;2022-11-20T11:52:56;4.25;4.25;2.00
75960;PMS7003;64644;48.914;2.254;2022-11-20T12:07:20;4.75;4.75;4.00
75960;PMS7003;64644;48.914;2.254;2022-11-20T12:09:52;2.25;1.75;1.50
75960;PMS7003;64644;48.914;2.254;2022-11-20T12:12:23;3.50;3.50;3.00
75960;PMS7003;64644;48.914;2.254;2022-11-20T12:14:53;4.25;2.00;1.25
75960;PMS7003;64644;48.914;2.254;2022-11-20T12:17:21;1.75;1.75;1.00
75960;PMS7003;64644;48.914;2.254;2022-11-20T12:19:46;6.00;2.00;2.00
75960;PMS7003;64644;48.914;2.254;2022-11-20T12:30:25;4.25;3.00;1.50
75960;PMS7003;64644;48.914;2.254;2022-11-20T12:42:01;3.50;2.75;2.00
75960;PMS7003;64644;48.914;2.254;2022-11-20T12:52:57;6.50;5.00;4.00
75960;PMS7003;64644;48.914;2.254;2022-11-20T12:58:27;7.50;7.50;4.00
75960;PMS7003;64644;48.914;2.254;2022-11-20T13:04:11;5.75;5.75;5.00
75960;PMS7003;64644;48.914;2.254;2022-11-20T13:06:56;5.00;5.00;4.25
75960;PMS7003;64644;48.914;2.254;2022-11-20T13:09:22;7.50;6.00;3.25
75960;PMS7003;64644;48.914;2.254;2022-11-20T13:15:04;7.50;7.00;5.50
75960;PMS7003;64644;48.914;2.254;2022-11-20T13:20:21;6.00;5.50;3.00
75960;PMS7003;64644;48.914;2.254;2022-11-20T13:22:48;7.50;7.00;4.50
75960;PMS7003;64644;48.914;2.254;2022-11-20T13:25:26;5.00;5.00;2.00
75960;PMS7003;64644;48.914;2.254;2022-11-20T13:27:57;3.25;3.25;2.25
75960;PMS7003;64644;48.914;2.254;2022-11-20T13:30:29;2.75;2.75;2.25
75960;PMS7003;64644;48.914;2.254;2022-11-20T13:36:04;7.25;5.75;5.00
75960;PMS7003;64644;48.914;2.254;2022-11-20T13:38:19;4.00;4.00;4.00
75960;PMS7003;64644;48.914;2.254;2022-11-20T13:40:55;5.75;5.75;4.50
75960;PMS7003;64644;48.914;2.254;2022-11-20T13:45:55;5.25;5.25;4.00
75960;PMS7003;64644;48.914;2.254;2022-11-20T13:48:32;5.00;5.00;3.00
75960;PMS7003;64644;48.914;2.254;2022-11-20T13:59:56;5.00;3.00;2.50
75960;PMS7003;64644;48.914;2.254;2022-11-20T14:02:25;7.50;7.00;6.00
75960;PMS7003;64644;48.914;2.254;2022-11-20T14:04:53;6.25;5.50;5.00
75960;PMS7003;64644;48.914;2.254;2022-11-20T14:07:22;6.25;6.25;5.75
75960;PMS7003;64644;48.914;2.254;2022-11-20T14:09:56;6.00;5.00;3.00
75960;PMS7003;64644;48.914;2.254;2022-11-20T14:12:33;9.00;9.00;6.50
75960;PMS7003;64644;48.914;2.254;2022-11-20T14:14:59;5.25;5.25;4.50
75960;PMS7003;64644;48.914;2.254;2022-11-20T14:17:32;3.00;3.00;3.00
75960;PMS7003;64644;48.914;2.254;2022-11-20T14:20:00;8.00;5.50;2.00
75960;PMS7003;64644;48.914;2.254;2022-11-20T14:22:29;5.00;2.50;2.00
75960;PMS7003;64644;48.914;2.254;2022-11-20T14:25:01;6.25;6.25;4.50
75960;PMS7003;64644;48.914;2.254;2022-11-20T14:27:42;3.00;3.00;2.50
75960;PMS7003;64644;48.914;2.254;2022-11-20T14:30:16;5.50;5.50;5.50
75960;PMS7003;64644;48.914;2.254;2022-11-20T14:32:45;6.00;6.00;5.00
75960;PMS7003;64644;48.914;2.254;2022-11-20T14:35:23;2.75;2.75;2.00
75960;PMS7003;64644;48.914;2.254;2022-11-20T14:37:51;7.75;7.75;4.50
75960;PMS7003;64644;48.914;2.254;2022-11-20T14:42:52;7.00;7.00;5.00
75960;PMS7003;64644;48.914;2.254;2022-11-20T14:45:17;6.00;6.00;5.25
75960;PMS7003;64644;48.914;2.254;2022-11-20T14:47:44;8.75;8.25;6.00
75960;PMS7003;64644;48.914;2.254;2022-11-20T14:52:53;6.25;6.00;3.00
75960;PMS7003;64644;48.914;2.254;2022-11-20T14:55:27;5.25;5.25;4.00
75960;PMS7003;64644;48.914;2.254;2022-11-20T14:58:02;7.25;6.50;5.50
75960;PMS7003;64644;48.914;2.254;2022-11-20T15:00:30;7.00;7.00;5.00
75960;PMS7003;64644;48.914;2.254;2022-11-20T15:02:57;10.00;8.00;6.00
75960;PMS7003;64644;48.914;2.254;2022-11-20T15:05:43;10.75;6.00;5.00
75960;PMS7003;64644;48.914;2.254;2022-11-20T15:08:10;10.75;7.00;5.00
75960;PMS7003;64644;48.914;2.254;2022-11-20T15:10:37;10.25;8.75;5.25
75960;PMS7003;64644;48.914;2.254;2022-11-20T15:13:06;11.50;6.00;4.50
75960;PMS7003;64644;48.914;2.254;2022-11-20T15:18:31;9.75;9.25;6.25
75960;PMS7003;64644;48.914;2.254;2022-11-20T15:21:02;9.75;9.00;6.75
75960;PMS7003;64644;48.914;2.254;2022-11-20T15:23:31;7.25;7.00;5.00
75960;PMS7003;64644;48.914;2.254;2022-11-20T15:25:56;6.00;5.75;4.50
75960;PMS7003;64644;48.914;2.254;2022-11-20T15:28:33;6.75;6.75;4.00
75960;PMS7003;64644;48.914;2.254;2022-11-20T15:31:06;7.50;6.50;5.00
75960;PMS7003;64644;48.914;2.254;2022-11-20T15:33:36;9.00;8.25;5.00
75960;PMS7003;64644;48.914;2.254;2022-11-20T15:36:01;5.75;5.75;2.50
75960;PMS7003;64644;48.914;2.254;2022-11-20T15:38:26;5.50;5.00;3.00
75960;PMS7003;64644;48.914;2.254;2022-11-20T15:40:52;9.00;6.00;4.00
75960;PMS7003;64644;48.914;2.254;2022-11-20T15:43:17;10.25;9.75;6.50
75960;PMS7003;64644;48.914;2.254;2022-11-20T15:45:44;8.00;8.00;6.25
75960;PMS7003;64644;48.914;2.254;2022-11-20T15:48:16;7.50;5.25;5.00
75960;PMS7003;64644;48.914;2.254;2022-11-20T15:53:19;9.00;5.00;3.00
75960;PMS7003;64644;48.914;2.254;2022-11-20T15:55:45;6.25;5.50;2.25
75960;PMS7003;64644;48.914;2.254;2022-11-20T15:58:10;6.75;5.50;3.00
75960;PMS7003;64644;48.914;2.254;2022-11-20T16:00:35;9.25;6.75;5.00
75960;PMS7003;64644;48.914;2.254;2022-11-20T16:03:01;10.75;6.00;3.00
75960;PMS7003;64644;48.914;2.254;2022-11-20T16:05:29;6.25;3.00;2.75
75960;PMS7003;64644;48.914;2.254;2022-11-20T16:07:55;4.00;3.00;3.00
75960;PMS7003;64644;48.914;2.254;2022-11-20T16:10:21;2.50;2.00;0.50
75960;PMS7003;64644;48.914;2.254;2022-11-20T16:12:47;4.00;4.00;2.75
75960;PMS7003;64644;48.914;2.254;2022-11-20T16:15:31;6.25;5.25;4.00
75960;PMS7003;64644;48.914;2.254;2022-11-20T16:18:15;5.50;5.50;2.50
75960;PMS7003;64644;48.914;2.254;2022-11-20T16:20:43;7.00;4.50;2.75